Time;durP1;ratioP1;P1;durP2;ratioP2;P2;SDS_P1;SDS_P2;PMS_P1;PMS_P2;Temp;Humidity;BMP_temperature;BMP_pressure;BME280_temperature;BME280_humidity;BME280_pressure;Samples;Min_cycle;Max_cycle;Signal;HPM_P1;HPM_P2
2022/08/07 00:01:44;;;;;;;2.70;1.60;;;14.20;99.90;;;;;;4914653;29;20197;-71
2022/08/07 00:04:10;;;;;;;1.30;1.20;;;14.20;99.90;;;;;;4915375;29;20566;-71
2022/08/07 00:06:36;;;;;;;1.03;1.03;;;14.20;99.90;;;;;;4915071;29;20422;-72
2022/08/07 00:09:02;;;;;;;1.33;1.23;;;14.10;99.90;;;;;;4915572;29;20615;-71
2022/08/07 00:11:28;;;;;;;1.10;1.00;;;14.10;99.90;;;;;;4914194;29;20590;-71
2022/08/07 00:13:53;;;;;;;1.50;1.40;;;14.10;99.90;;;;;;4915349;29;20509;-71
2022/08/07 00:16:19;;;;;;;1.20;1.10;;;14.00;99.90;;;;;;4913301;29;20258;-71
2022/08/07 00:18:45;;;;;;;1.80;1.70;;;14.00;99.90;;;;;;4915554;29;20179;-71
2022/08/07 00:21:10;;;;;;;1.20;1.10;;;14.00;99.90;;;;;;4914329;29;20198;-71
2022/08/07 00:23:39;;;;;;;2.70;1.57;;;14.00;99.90;;;;;;4912284;29;20546;-70
2022/08/07 00:26:06;;;;;;;2.67;1.40;;;14.00;99.90;;;;;;4914174;29;20174;-71
2022/08/07 00:28:32;;;;;;;2.80;1.53;;;14.00;99.90;;;;;;4915115;29;20421;-71
2022/08/07 00:30:58;;;;;;;2.07;1.83;;;14.00;99.90;;;;;;4913912;29;20465;-70
2022/08/07 00:33:27;;;;;;;4.63;1.80;;;14.00;99.90;;;;;;4914496;29;20946;-71
2022/08/07 00:35:56;;;;;;;1.90;1.40;;;14.00;99.90;;;;;;4915197;29;20562;-71
2022/08/07 00:38:22;;;;;;;2.37;1.77;;;14.00;99.90;;;;;;4914090;29;20415;-71
2022/08/07 00:40:48;;;;;;;5.97;1.67;;;14.00;99.90;;;;;;4914114;29;20430;-71
2022/08/07 00:43:14;;;;;;;2.33;1.97;;;13.90;99.90;;;;;;4914557;29;20178;-71
2022/08/07 00:45:40;;;;;;;2.10;1.57;;;13.90;99.90;;;;;;4914841;29;20847;-70
2022/08/07 00:48:07;;;;;;;2.57;2.37;;;13.90;99.90;;;;;;4914592;29;20481;-70
2022/08/07 00:50:33;;;;;;;3.53;1.90;;;13.80;99.90;;;;;;4913224;29;20885;-70
2022/08/07 00:52:59;;;;;;;2.47;1.83;;;13.80;99.90;;;;;;4914459;29;20442;-70
2022/08/07 00:55:24;;;;;;;3.13;2.20;;;13.80;99.90;;;;;;4914264;29;20453;-70
2022/08/07 00:57:50;;;;;;;2.70;2.43;;;13.80;99.90;;;;;;4914791;29;20178;-72
2022/08/07 02:32:03;;;;;;;3.80;1.63;;;12.90;99.90;;;;;;5452434;23;20501;-72
2022/08/07 02:34:29;;;;;;;2.30;1.93;;;12.90;99.90;;;;;;4932906;29;20448;-71
2022/08/07 02:36:56;;;;;;;1.83;1.40;;;12.90;99.90;;;;;;4929518;29;20477;-71
2022/08/07 02:39:24;;;;;;;2.50;1.50;;;12.90;99.90;;;;;;4936573;29;20417;-72
2022/08/07 02:41:51;;;;;;;1.80;1.30;;;12.80;99.90;;;;;;4934949;29;20461;-71
2022/08/07 02:44:18;;;;;;;2.90;1.50;;;12.80;99.90;;;;;;4933426;29;20504;-71
2022/08/07 02:46:46;;;;;;;5.53;2.00;;;12.80;99.90;;;;;;4936066;29;20464;-70
2022/08/07 02:49:12;;;;;;;3.23;1.33;;;12.80;99.90;;;;;;4935497;29;20476;-72
2022/08/07 02:51:38;;;;;;;2.00;1.20;;;12.70;99.90;;;;;;4935375;29;20444;-71
2022/08/07 02:54:08;;;;;;;1.50;1.40;;;12.80;99.90;;;;;;4934885;29;20532;-71
2022/08/07 02:56:37;;;;;;;3.30;1.57;;;12.70;99.90;;;;;;4935876;29;20709;-69
2022/08/07 02:59:07;;;;;;;4.53;1.60;;;12.70;99.90;;;;;;4935389;29;20476;-73
2022/08/07 03:01:33;;;;;;;1.53;1.43;;;12.70;99.90;;;;;;4934439;29;20441;-72
2022/08/07 03:04:00;;;;;;;1.53;1.43;;;12.70;99.90;;;;;;4935080;29;20503;-73
2022/08/07 03:06:27;;;;;;;1.50;1.40;;;12.70;99.90;;;;;;4935539;29;20933;-72
2022/08/07 03:08:53;;;;;;;1.33;1.23;;;12.60;99.90;;;;;;4935323;29;20417;-71
2022/08/07 03:11:19;;;;;;;2.30;1.30;;;12.60;99.90;;;;;;4934411;29;20452;-71
2022/08/07 03:13:45;;;;;;;1.37;1.27;;;12.50;99.90;;;;;;4934923;29;20749;-72
2022/08/07 03:16:11;;;;;;;3.40;1.57;;;12.50;99.90;;;;;;4934801;29;20439;-72
2022/08/07 03:18:37;;;;;;;1.23;1.13;;;12.40;99.90;;;;;;4935322;29;20655;-73
2022/08/07 03:21:04;;;;;;;2.50;1.17;;;12.40;99.90;;;;;;4934359;29;20204;-72
2022/08/07 03:23:31;;;;;;;1.37;1.20;;;12.40;99.90;;;;;;4935145;29;20410;-73
2022/08/07 03:26:00;;;;;;;1.63;1.53;;;12.40;99.90;;;;;;4935031;29;20605;-72
2022/08/07 03:28:28;;;;;;;1.73;1.47;;;12.40;99.90;;;;;;4935104;29;20793;-71
2022/08/07 03:31:17;;;;;;;1.67;1.57;;;12.40;99.90;;;;;;4933210;29;20484;-72
2022/08/07 03:33:43;;;;;;;2.10;1.30;;;12.40;99.90;;;;;;4934955;29;20449;-73
2022/08/07 03:36:09;;;;;;;1.30;1.20;;;12.40;99.90;;;;;;4934862;29;20953;-72
2022/08/07 03:38:38;;;;;;;6.23;1.40;;;12.40;99.90;;;;;;4934969;29;20786;-72
2022/08/07 03:41:04;;;;;;;2.23;1.57;;;12.40;99.90;;;;;;4933639;29;20441;-69
2022/08/07 03:43:29;;;;;;;1.30;1.20;;;12.30;99.90;;;;;;4934407;29;20420;-73
2022/08/07 03:45:55;;;;;;;2.10;1.97;;;12.30;99.90;;;;;;4934689;29;20788;-72
2022/08/07 03:48:21;;;;;;;1.77;1.30;;;12.30;99.90;;;;;;4934785;29;20182;-72
2022/08/07 03:50:48;;;;;;;2.70;1.60;;;12.30;99.90;;;;;;4933552;29;20461;-71
2022/08/07 03:53:14;;;;;;;2.30;1.73;;;12.30;99.90;;;;;;4934726;29;20178;-72
2022/08/07 03:55:42;;;;;;;1.60;1.50;;;12.30;99.90;;;;;;4934229;29;20420;-73
2022/08/07 03:58:08;;;;;;;2.87;1.40;;;12.30;99.90;;;;;;4934573;29;20423;-72
2022/08/07 04:00:35;;;;;;;3.67;2.40;;;12.30;99.90;;;;;;4933823;29;20461;-70
2022/08/07 04:03:01;;;;;;;2.20;2.10;;;12.30;99.90;;;;;;4934263;29;20178;-72
2022/08/07 04:05:27;;;;;;;3.87;1.67;;;12.20;99.90;;;;;;4934194;29;20460;-72
2022/08/07 04:07:53;;;;;;;1.70;1.37;;;12.30;99.90;;;;;;4933758;29;20421;-72
2022/08/07 04:10:19;;;;;;;2.80;1.50;;;12.20;99.90;;;;;;4934250;29;20205;-72
2022/08/07 04:12:45;;;;;;;3.43;1.30;;;12.20;99.90;;;;;;4933282;29;20485;-72
2022/08/07 04:15:11;;;;;;;1.20;1.20;;;12.20;99.90;;;;;;4933692;29;20178;-72
2022/08/07 04:17:38;;;;;;;1.53;1.40;;;12.20;99.90;;;;;;4934430;29;20413;-72
2022/08/07 04:20:09;;;;;;;1.50;1.40;;;12.20;99.90;;;;;;4933955;29;20433;-70
2022/08/07 04:22:35;;;;;;;1.20;1.20;;;12.20;99.90;;;;;;4933152;29;20476;-72
2022/08/07 04:25:01;;;;;;;2.33;1.33;;;12.20;99.90;;;;;;4934072;29;20445;-72
2022/08/07 04:27:26;;;;;;;1.23;1.23;;;12.20;99.90;;;;;;4934065;29;20432;-72
2022/08/07 04:29:53;;;;;;;2.20;1.30;;;12.20;99.90;;;;;;4933349;29;20211;-72
2022/08/07 04:32:18;;;;;;;1.40;1.30;;;12.30;99.90;;;;;;4932980;29;20290;-72
2022/08/07 04:34:44;;;;;;;1.10;0.93;;;12.30;99.90;;;;;;4933981;29;20420;-70
2022/08/07 04:37:10;;;;;;;3.47;1.37;;;12.30;99.90;;;;;;4933936;29;20588;-72
2022/08/07 04:39:35;;;;;;;1.27;1.17;;;12.40;99.90;;;;;;4933906;29;20261;-72
2022/08/07 04:42:02;;;;;;;1.40;1.30;;;12.40;99.90;;;;;;4932364;29;20208;-72
2022/08/07 04:44:28;;;;;;;1.87;1.30;;;12.40;99.90;;;;;;4933586;29;20181;-72
2022/08/07 04:47:15;;;;;;;1.90;1.70;;;12.50;99.90;;;;;;4933974;29;20432;-72
2022/08/07 04:49:51;;;;;;;1.60;1.50;;;12.50;99.90;;;;;;4933540;29;20260;-72
2022/08/07 04:52:53;;;;;;;1.30;1.20;;;12.50;99.90;;;;;;4932808;29;20432;-72
2022/08/07 04:55:42;;;;;;;1.83;1.40;;;12.60;99.90;;;;;;4929547;29;20435;-72
2022/08/07 04:58:18;;;;;;;1.73;1.47;;;12.70;99.90;;;;;;4933268;29;20552;-72
2022/08/07 05:00:57;;;;;;;1.93;1.50;;;12.80;99.90;;;;;;4932744;29;20421;-69
2022/08/07 05:03:30;;;;;;;1.10;1.00;;;12.80;99.90;;;;;;4933277;29;20460;-72
2022/08/07 05:06:08;;;;;;;3.93;1.60;;;12.90;99.90;;;;;;4933308;29;20504;-72
2022/08/07 05:09:03;;;;;;;1.43;1.40;;;12.90;99.90;;;;;;4933530;29;20788;-73
2022/08/07 05:11:35;;;;;;;1.40;1.30;;;13.00;99.90;;;;;;4932022;29;20443;-73
2022/08/07 05:14:07;;;;;;;1.40;1.40;;;13.10;99.90;;;;;;4933372;29;20416;-73
2022/08/07 05:16:36;;;;;;;1.63;1.50;;;13.30;99.90;;;;;;4933546;29;20415;-72
2022/08/07 05:19:07;;;;;;;6.30;1.03;;;13.40;99.90;;;;;;4933179;29;20753;-72
2022/08/07 05:21:34;;;;;;;1.40;1.30;;;13.50;99.90;;;;;;4931893;29;20432;-73
2022/08/07 05:24:08;;;;;;;1.77;1.40;;;13.80;99.90;;;;;;4933055;29;20405;-72
2022/08/07 05:26:35;;;;;;;5.70;1.50;;;14.20;99.90;;;;;;4933490;29;20400;-72
2022/08/07 05:29:03;;;;;;;1.40;1.30;;;14.80;99.90;;;;;;4932439;29;20418;-73
2022/08/07 05:31:33;;;;;;;3.00;1.43;;;15.30;99.90;;;;;;4932307;29;20449;-73
2022/08/07 05:34:00;;;;;;;3.40;1.13;;;15.90;99.90;;;;;;4932995;29;20500;-73
2022/08/07 05:36:28;;;;;;;1.33;1.23;;;16.60;99.90;;;;;;4932984;29;20440;-73
2022/08/07 05:38:54;;;;;;;3.20;1.10;;;17.20;99.90;;;;;;4933205;29;21001;-72
2022/08/07 05:41:21;;;;;;;2.80;1.13;;;17.70;99.90;;;;;;4931619;29;20489;-73
2022/08/07 05:43:53;;;;;;;2.70;1.23;;;18.20;99.90;;;;;;4933004;29;20413;-73
2022/08/07 05:46:20;;;;;;;2.20;1.20;;;18.60;99.90;;;;;;4933008;29;20499;-73
2022/08/07 05:48:48;;;;;;;1.37;1.27;;;19.00;99.90;;;;;;4932908;29;20429;-74
2022/08/07 05:51:14;;;;;;;2.10;0.97;;;19.50;99.90;;;;;;4931472;29;21103;-73
2022/08/07 05:53:40;;;;;;;3.10;1.60;;;19.90;99.90;;;;;;4933590;29;20500;-73
2022/08/07 05:56:08;;;;;;;2.40;1.60;;;20.30;99.90;;;;;;4935311;29;20511;-72
2022/08/07 05:58:35;;;;;;;1.53;1.43;;;20.60;99.90;;;;;;4936945;29;20181;-72
2022/08/07 06:01:02;;;;;;;1.50;1.40;;;20.80;99.90;;;;;;4935178;29;20877;-73
2022/08/07 06:03:29;;;;;;;1.63;1.37;;;21.20;99.90;;;;;;4936492;29;20415;-72
2022/08/07 06:05:56;;;;;;;3.53;1.87;;;21.40;99.90;;;;;;4936620;29;20413;-73
2022/08/07 06:08:22;;;;;;;3.20;1.47;;;21.70;99.90;;;;;;4936630;29;20417;-73
2022/08/07 06:10:49;;;;;;;2.80;1.57;;;22.10;99.90;;;;;;4935887;29;20475;-74
2022/08/07 06:13:15;;;;;;;3.27;1.30;;;22.10;99.90;;;;;;4936279;29;20772;-73
2022/08/07 06:15:42;;;;;;;2.30;1.80;;;22.40;99.90;;;;;;4936124;29;20441;-73
2022/08/07 06:18:08;;;;;;;1.83;1.73;;;22.60;99.90;;;;;;4936122;29;20173;-73
2022/08/07 06:20:37;;;;;;;2.60;1.47;;;22.80;99.90;;;;;;4935717;29;21009;-71
2022/08/07 06:23:07;;;;;;;1.83;1.53;;;22.80;99.90;;;;;;4936174;29;20515;-73
2022/08/07 06:25:33;;;;;;;2.60;2.30;;;22.80;99.90;;;;;;4936380;29;20563;-73
2022/08/07 06:28:07;;;;;;;2.30;2.20;;;23.00;99.90;;;;;;4935617;29;20433;-73
2022/08/07 06:30:37;;;;;;;2.67;2.47;;;23.10;99.90;;;;;;4935520;29;20468;-70
2022/08/07 06:33:04;;;;;;;2.40;2.10;;;23.20;99.90;;;;;;4935632;28;20437;-72
2022/08/07 06:35:30;;;;;;;2.87;2.63;;;23.20;99.90;;;;;;4936211;29;20425;-73
2022/08/07 06:37:57;;;;;;;2.17;1.93;;;22.90;99.90;;;;;;4936042;29;20778;-73
2022/08/07 06:40:22;;;;;;;6.53;2.70;;;23.20;99.90;;;;;;4935772;29;20508;-71
2022/08/07 06:42:49;;;;;;;3.23;2.50;;;23.70;99.90;;;;;;4935467;29;20573;-72
2022/08/07 06:45:18;;;;;;;4.13;2.70;;;23.90;99.90;;;;;;4936068;29;20178;-73
2022/08/07 06:47:44;;;;;;;3.10;2.90;;;24.10;99.90;;;;;;4936000;29;20777;-70
2022/08/07 06:50:10;;;;;;;2.73;2.57;;;24.20;99.90;;;;;;4935201;29;20477;-72
2022/08/07 06:52:37;;;;;;;2.20;2.10;;;24.40;99.90;;;;;;4935085;29;20429;-73
2022/08/07 06:55:10;;;;;;;3.77;2.40;;;24.60;99.90;;;;;;4935705;29;20421;-71
2022/08/07 06:57:37;;;;;;;2.90;2.73;;;24.70;99.90;;;;;;4935675;29;20413;-73
2022/08/07 07:00:04;;;;;;;3.07;2.60;;;25.00;99.90;;;;;;4936031;29;20864;-73
2022/08/07 07:02:30;;;;;;;2.60;2.40;;;24.90;99.90;;;;;;4934907;29;20977;-73
2022/08/07 07:04:56;;;;;;;2.23;2.13;;;24.90;99.90;;;;;;4935592;29;20523;-73
2022/08/07 07:07:21;;;;;;;2.60;2.37;;;25.20;99.90;;;;;;4935195;29;20458;-73
2022/08/07 07:09:49;;;;;;;2.30;2.20;;;25.50;99.90;;;;;;4934973;29;20545;-73
2022/08/07 07:12:47;;;;;;;2.17;2.07;;;25.80;99.90;;;;;;4934630;29;20201;-73
2022/08/07 07:15:27;;;;;;;2.47;1.90;;;26.10;99.90;;;;;;4935240;29;20514;-71
2022/08/07 07:18:18;;;;;;;3.27;3.00;;;26.30;99.90;;;;;;4935468;29;20579;-70
2022/08/07 07:20:51;;;;;;;9.00;2.70;;;26.30;99.90;;;;;;4934430;29;20413;-68
2022/08/07 07:23:17;;;;;;;3.87;2.50;;;25.80;99.90;;;;;;4935134;29;20777;-71
2022/08/07 07:25:44;;;;;;;2.80;2.17;;;25.20;99.90;;;;;;4935418;29;20910;-70
2022/08/07 07:28:15;;;;;;;2.20;2.00;;;25.20;99.90;;;;;;4934698;29;20774;-71
2022/08/07 07:30:46;;;;;;;2.90;2.00;;;25.30;99.90;;;;;;4934180;29;20476;-71
2022/08/07 07:33:16;;;;;;;3.10;2.47;;;25.40;99.90;;;;;;4935064;29;20484;-70
2022/08/07 07:35:43;;;;;;;3.10;2.90;;;25.70;99.90;;;;;;4935055;29;20781;-71
2022/08/07 07:38:10;;;;;;;2.27;2.17;;;25.70;99.90;;;;;;4934327;29;20406;-71
2022/08/07 07:40:39;;;;;;;2.93;1.90;;;25.20;99.90;;;;;;4934306;29;20485;-70
2022/08/07 07:43:05;;;;;;;1.97;1.87;;;25.20;99.90;;;;;;4934159;29;20424;-71
2022/08/07 07:45:31;;;;;;;1.50;1.50;;;25.50;99.90;;;;;;4934835;29;20428;-71
2022/08/07 07:47:58;;;;;;;2.03;1.80;;;25.90;99.90;;;;;;4934884;29;20413;-72
2022/08/07 07:50:26;;;;;;;1.30;1.20;;;26.00;99.90;;;;;;4932311;29;20468;-69
2022/08/07 07:52:53;;;;;;;8.23;1.47;;;25.80;99.90;;;;;;4934207;29;20444;-71
2022/08/07 07:55:20;;;;;;;1.50;1.40;;;26.20;99.90;;;;;;4934727;29;20780;-71
2022/08/07 07:57:49;;;;;;;1.30;1.20;;;26.60;99.90;;;;;;4934577;29;20834;-71
2022/08/07 08:00:16;;;;;;;1.73;1.40;;;26.70;99.90;;;;;;4934069;29;20485;-71
2022/08/07 08:02:43;;;;;;;1.53;1.43;;;26.60;99.90;;;;;;4934116;29;20433;-71
2022/08/07 08:05:10;;;;;;;3.17;1.50;;;26.70;99.90;;;;;;4934536;29;20438;-70
2022/08/07 08:07:37;;;;;;;1.67;1.10;;;26.30;99.90;;;;;;4934727;29;20452;-71
2022/08/07 08:10:06;;;;;;;1.73;1.30;;;26.60;99.90;;;;;;4934184;29;20472;-69
2022/08/07 08:12:33;;;;;;;2.17;1.73;;;27.20;99.90;;;;;;4932992;29;20473;-73
2022/08/07 08:14:59;;;;;;;3.03;1.13;;;27.10;99.90;;;;;;4934215;29;20409;-73
2022/08/07 08:17:26;;;;;;;1.13;0.80;;;26.80;99.90;;;;;;4933459;29;20413;-72
2022/08/07 08:19:57;;;;;;;1.33;1.00;;;26.80;99.90;;;;;;4934206;29;20417;-73
2022/08/07 08:27:55;;;;;;;1.00;1.00;;;26.90;99.30;;;;;;4934419;29;20420;-73
2022/08/07 08:30:21;;;;;;;1.37;0.80;;;26.50;98.20;;;;;;4934361;29;20473;-73
2022/08/07 08:32:52;;;;;;;1.70;1.30;;;26.40;98.90;;;;;;4935665;29;20453;-73
2022/08/07 08:35:22;;;;;;;1.30;1.30;;;26.70;97.70;;;;;;4935157;29;20409;-73
2022/08/07 08:37:50;;;;;;;3.87;1.17;;;26.80;97.80;;;;;;4934004;29;20410;-73
2022/08/07 08:40:25;;;;;;;2.10;1.27;;;26.80;97.60;;;;;;4933865;29;20425;-73
2022/08/07 08:43:02;;;;;;;1.53;1.00;;;27.20;97.60;;;;;;4933201;29;20428;-73
2022/08/07 08:45:52;;;;;;;1.03;0.93;;;27.10;96.30;;;;;;4933876;29;21000;-73
2022/08/07 08:48:24;;;;;;;0.90;0.90;;;27.50;95.10;;;;;;4932021;29;20437;-72
2022/08/07 08:50:55;;;;;;;1.00;0.90;;;27.10;93.70;;;;;;4933070;29;20475;-72
2022/08/07 08:53:45;;;;;;;1.17;1.07;;;27.50;94.80;;;;;;4933795;29;20429;-72
2022/08/07 08:56:40;;;;;;;1.20;1.10;;;27.60;93.80;;;;;;4933643;29;20421;-72
2022/08/07 08:59:27;;;;;;;1.50;0.80;;;28.30;93.40;;;;;;4931199;29;20871;-73
2022/08/07 09:02:15;;;;;;;2.30;1.17;;;28.90;93.80;;;;;;4932234;29;20946;-72
2022/08/07 09:05:15;;;;;;;1.20;0.60;;;29.30;90.80;;;;;;4933818;29;20743;-72
2022/08/07 09:07:51;;;;;;;1.23;0.80;;;29.30;87.80;;;;;;4933796;29;20997;-72
2022/08/07 09:10:31;;;;;;;1.03;0.90;;;29.50;88.10;;;;;;4933415;29;20542;-72
2022/08/07 09:13:11;;;;;;;0.70;0.63;;;30.00;86.80;;;;;;4930957;29;21021;-72
2022/08/07 09:15:53;;;;;;;0.60;0.60;;;29.80;84.50;;;;;;4933766;29;20413;-72
2022/08/07 09:18:35;;;;;;;0.60;0.60;;;30.00;86.40;;;;;;4933481;29;20479;-73
2022/08/07 09:21:27;;;;;;;3.23;0.70;;;30.80;83.10;;;;;;4932876;29;20465;-73
2022/08/07 09:24:38;;;;;;;4.83;0.67;;;30.90;81.90;;;;;;4933082;29;20536;-73
2022/08/07 09:27:32;;;;;;;0.80;0.60;;;31.10;79.60;;;;;;4933099;29;20758;-71
2022/08/07 09:30:06;;;;;;;0.77;0.77;;;31.50;76.70;;;;;;4932724;29;20461;-73
2022/08/07 09:33:03;;;;;;;0.60;0.50;;;30.60;76.60;;;;;;4932477;29;20996;-72
2022/08/07 09:36:01;;;;;;;1.10;0.60;;;30.70;78.60;;;;;;4932764;29;20414;-72
2022/08/07 09:38:48;;;;;;;1.93;0.70;;;30.90;74.80;;;;;;4929336;29;20421;-73
2022/08/07 09:41:35;;;;;;;0.70;0.60;;;31.40;73.30;;;;;;4931919;29;20903;-71
2022/08/07 09:44:07;;;;;;;3.80;0.50;;;31.60;72.10;;;;;;4933281;29;20476;-72
2022/08/07 09:47:01;;;;;;;1.20;0.77;;;30.90;69.60;;;;;;4932796;29;20425;-72
2022/08/07 09:49:51;;;;;;;0.93;0.60;;;30.40;71.40;;;;;;4932884;29;20445;-72
2022/08/07 09:52:27;;;;;;;2.73;0.70;;;30.00;69.90;;;;;;4932237;29;20430;-73
2022/08/07 09:55:03;;;;;;;0.87;0.80;;;29.60;70.90;;;;;;4932774;29;20428;-73
2022/08/07 09:58:12;;;;;;;1.13;0.60;;;29.80;69.80;;;;;;4932690;29;20429;-72
2022/08/07 10:01:03;;;;;;;2.73;0.70;;;30.90;70.60;;;;;;4932206;29;20429;-73
2022/08/07 10:03:47;;;;;;;0.70;0.60;;;30.60;67.70;;;;;;4932789;29;20421;-72
2022/08/07 10:06:24;;;;;;;0.60;0.60;;;30.80;68.30;;;;;;4932779;29;20855;-73
2022/08/07 10:09:11;;;;;;;1.00;0.60;;;31.30;67.10;;;;;;4932379;29;20409;-73
2022/08/07 10:11:36;;;;;;;1.00;0.70;;;31.20;67.50;;;;;;4931826;29;20521;-73
2022/08/07 10:14:18;;;;;;;1.33;0.50;;;31.80;67.20;;;;;;4933098;29;20973;-73
2022/08/07 10:17:01;;;;;;;0.70;0.60;;;31.80;66.00;;;;;;4932807;29;20530;-71
2022/08/07 10:19:43;;;;;;;0.97;0.70;;;31.30;64.80;;;;;;4932775;29;20424;-73
2022/08/07 10:22:52;;;;;;;1.00;0.60;;;31.80;65.10;;;;;;4932104;29;20465;-73
2022/08/07 10:25:47;;;;;;;2.10;0.70;;;31.90;64.20;;;;;;4932745;29;20513;-73
2022/08/07 10:28:23;;;;;;;1.37;0.60;;;31.80;62.70;;;;;;4932971;29;20898;-73
2022/08/07 10:31:26;;;;;;;0.60;0.50;;;31.30;62.90;;;;;;4931887;29;20515;-72
2022/08/07 10:34:02;;;;;;;2.00;0.50;;;31.20;64.10;;;;;;4932916;29;20409;-73
2022/08/07 10:36:52;;;;;;;0.90;0.80;;;30.90;63.30;;;;;;4932233;29;20821;-73
2022/08/07 10:39:34;;;;;;;0.60;0.60;;;30.30;63.80;;;;;;4932292;29;20494;-72
2022/08/07 10:42:38;;;;;;;1.63;0.60;;;30.40;64.20;;;;;;4934136;29;20460;-72
2022/08/07 10:45:26;;;;;;;0.53;0.53;;;29.80;62.80;;;;;;4927893;29;20476;-70
2022/08/07 10:47:57;;;;;;;2.80;0.57;;;29.80;63.30;;;;;;4935555;29;20409;-72
2022/08/07 10:50:46;;;;;;;1.60;0.63;;;30.30;63.60;;;;;;4935453;29;20477;-70
2022/08/07 10:53:38;;;;;;;2.20;0.67;;;30.80;63.60;;;;;;4932573;29;20444;-73
2022/08/07 10:56:10;;;;;;;0.60;0.60;;;31.30;61.80;;;;;;4935635;29;20417;-71
2022/08/07 10:58:54;;;;;;;0.60;0.60;;;31.70;61.00;;;;;;4935973;29;20449;-73
2022/08/07 11:01:30;;;;;;;0.63;0.63;;;31.90;60.80;;;;;;4935551;29;20437;-73
2022/08/07 11:04:20;;;;;;;0.60;0.60;;;32.00;59.80;;;;;;4936737;29;21016;-73
2022/08/07 11:07:13;;;;;;;0.50;0.50;;;32.10;60.80;;;;;;4936284;29;20422;-73
2022/08/07 11:09:46;;;;;;;1.90;0.50;;;31.60;59.30;;;;;;4935573;29;21009;-73
2022/08/07 11:12:36;;;;;;;1.67;0.70;;;31.10;58.80;;;;;;4934890;29;20438;-72
2022/08/07 11:15:10;;;;;;;0.80;0.60;;;30.30;60.80;;;;;;4934942;29;20417;-72
2022/08/07 11:17:48;;;;;;;2.17;0.63;;;30.10;60.60;;;;;;4935809;29;20413;-72
2022/08/07 11:20:41;;;;;;;1.17;0.73;;;29.40;61.30;;;;;;4935264;29;20421;-71
2022/08/07 11:23:30;;;;;;;0.70;0.60;;;29.10;61.80;;;;;;4934796;29;20468;-73
2022/08/07 11:26:10;;;;;;;3.80;0.70;;;28.90;62.50;;;;;;4934635;29;20561;-72
2022/08/07 11:28:57;;;;;;;2.80;0.70;;;29.30;63.60;;;;;;4935580;29;20545;-72
2022/08/07 11:31:47;;;;;;;2.00;0.70;;;29.20;64.40;;;;;;4934044;29;20515;-71
2022/08/07 11:34:40;;;;;;;0.60;0.60;;;29.20;63.90;;;;;;4935243;29;20500;-72
2022/08/07 11:37:30;;;;;;;1.70;0.80;;;28.90;64.00;;;;;;4934748;29;20424;-72
2022/08/07 11:40:12;;;;;;;0.90;0.60;;;28.70;64.30;;;;;;4934953;29;20421;-72
2022/08/07 11:42:46;;;;;;;0.60;0.60;;;28.80;65.10;;;;;;4934264;29;20441;-72
2022/08/07 11:45:29;;;;;;;1.37;0.60;;;29.10;64.30;;;;;;4934944;29;20425;-72
2022/08/07 11:48:19;;;;;;;1.03;0.80;;;28.80;63.30;;;;;;4934969;29;20476;-72
2022/08/07 11:51:03;;;;;;;1.10;0.77;;;28.80;64.70;;;;;;4933859;29;20480;-71
2022/08/07 11:53:51;;;;;;;0.97;0.63;;;29.10;65.30;;;;;;4934654;29;20415;-72
2022/08/07 11:56:52;;;;;;;1.13;0.60;;;28.80;64.00;;;;;;4934951;29;20476;-72
2022/08/07 11:59:55;;;;;;;5.37;1.00;;;28.90;65.10;;;;;;4934871;29;20421;-72
2022/08/07 12:02:39;;;;;;;1.10;0.70;;;28.70;65.40;;;;;;4933877;29;20546;-72
2022/08/07 12:05:21;;;;;;;2.83;0.63;;;28.50;65.40;;;;;;4933663;29;20413;-72
2022/08/07 12:08:04;;;;;;;0.80;0.80;;;28.40;66.40;;;;;;4934659;29;20409;-72
2022/08/07 12:10:59;;;;;;;0.80;0.60;;;28.40;66.20;;;;;;4934193;29;20473;-72
2022/08/07 12:13:41;;;;;;;1.63;1.00;;;28.60;65.90;;;;;;4934300;29;20850;-72
2022/08/07 12:16:34;;;;;;;1.47;0.80;;;28.60;65.80;;;;;;4934053;29;20413;-72
2022/08/07 12:19:13;;;;;;;2.63;0.57;;;28.40;65.20;;;;;;4931305;29;20429;-72
2022/08/07 12:22:06;;;;;;;1.00;0.70;;;28.20;64.90;;;;;;4933555;29;20473;-72
2022/08/07 12:27:45;;;;;;;1.63;0.60;;;27.80;65.90;;;;;;4934366;29;20798;-72
2022/08/07 12:30:11;;;;;;;1.10;1.00;;;27.50;66.20;;;;;;4933934;29;20465;-73
2022/08/07 12:32:56;;;;;;;1.43;0.80;;;27.30;66.90;;;;;;4933536;29;20455;-73
2022/08/07 12:35:23;;;;;;;1.30;0.70;;;27.50;67.20;;;;;;4934217;29;20511;-74
2022/08/07 12:37:50;;;;;;;2.57;0.77;;;27.70;67.10;;;;;;4934154;29;20522;-73
2022/08/07 12:40:20;;;;;;;2.00;0.70;;;28.10;67.30;;;;;;4933487;29;20429;-72
2022/08/07 12:42:50;;;;;;;1.10;0.80;;;28.00;65.90;;;;;;4931416;29;20988;-72
2022/08/07 12:45:20;;;;;;;0.60;0.60;;;28.10;66.10;;;;;;4933776;29;21061;-73
2022/08/07 12:48:12;;;;;;;1.63;0.50;;;28.20;65.90;;;;;;4933771;29;20906;-73
2022/08/07 12:50:55;;;;;;;0.60;0.60;;;28.20;65.70;;;;;;4932920;29;20837;-72
2022/08/07 12:53:26;;;;;;;1.13;0.90;;;28.10;65.00;;;;;;4933255;29;20837;-73
2022/08/07 12:56:02;;;;;;;1.07;0.60;;;28.10;66.60;;;;;;4933631;29;20965;-72
2022/08/07 12:58:33;;;;;;;0.80;0.67;;;28.20;66.10;;;;;;4933882;29;20930;-72
2022/08/07 13:01:05;;;;;;;0.70;0.70;;;28.10;64.70;;;;;;4932495;29;20437;-73
2022/08/07 13:04:14;;;;;;;0.50;0.50;;;28.10;64.90;;;;;;4932919;29;20504;-73
2022/08/07 13:07:07;;;;;;;1.90;0.70;;;28.30;66.40;;;;;;4933899;29;20405;-73
2022/08/07 13:10:00;;;;;;;1.43;0.70;;;28.10;65.60;;;;;;4933461;29;20413;-73
2022/08/07 13:12:36;;;;;;;0.80;0.80;;;27.60;65.60;;;;;;4928634;29;20455;-72
2022/08/07 13:15:50;;;;;;;1.63;0.60;;;27.40;68.60;;;;;;4933035;29;20778;-73
2022/08/07 13:18:38;;;;;;;1.80;0.70;;;27.60;66.30;;;;;;4914297;29;20430;-73
2022/08/07 13:21:09;;;;;;;2.07;0.80;;;27.70;67.10;;;;;;4932406;29;20433;-70
2022/08/07 13:24:04;;;;;;;0.70;0.70;;;27.60;65.60;;;;;;4932936;29;20428;-73
2022/08/07 13:26:42;;;;;;;1.33;0.70;;;27.30;66.30;;;;;;4933319;29;20448;-73
2022/08/07 13:29:26;;;;;;;1.87;0.70;;;27.30;66.20;;;;;;4933223;29;20432;-73
2022/08/07 13:31:53;;;;;;;1.53;1.10;;;27.40;66.70;;;;;;4932261;29;20465;-73
2022/08/07 13:34:42;;;;;;;0.80;0.80;;;27.50;67.00;;;;;;4933499;29;20413;-73
2022/08/07 13:37:19;;;;;;;5.07;0.60;;;27.50;67.60;;;;;;4933271;29;20421;-72
2022/08/07 13:40:02;;;;;;;1.03;0.80;;;27.50;66.00;;;;;;4933125;29;21001;-73
2022/08/07 13:42:30;;;;;;;8.00;1.00;;;27.40;66.80;;;;;;4931940;29;20959;-72
2022/08/07 13:44:57;;;;;;;1.43;0.60;;;27.50;67.40;;;;;;4933205;29;20992;-73
2022/08/07 13:47:27;;;;;;;0.70;0.60;;;27.60;67.20;;;;;;4933045;29;20492;-73
2022/08/07 13:49:56;;;;;;;1.70;1.00;;;27.60;66.60;;;;;;4932985;29;20456;-72
2022/08/07 13:52:23;;;;;;;1.10;0.70;;;27.50;65.70;;;;;;4932259;29;20436;-72
2022/08/07 13:54:50;;;;;;;0.70;0.63;;;27.50;65.30;;;;;;4932717;29;20791;-72
2022/08/07 13:57:16;;;;;;;2.87;0.80;;;27.70;66.20;;;;;;4933116;29;20413;-73
2022/08/07 13:59:49;;;;;;;0.70;0.70;;;27.70;65.10;;;;;;4933227;29;20428;-72
2022/08/07 14:02:23;;;;;;;0.60;0.60;;;27.60;65.20;;;;;;4930514;29;20523;-71
2022/08/07 14:04:53;;;;;;;0.60;0.60;;;27.50;65.20;;;;;;4933063;29;20413;-73
2022/08/07 14:07:21;;;;;;;1.37;1.00;;;27.50;65.00;;;;;;4931854;29;20425;-73
2022/08/07 14:09:51;;;;;;;1.50;0.80;;;27.50;65.80;;;;;;4932981;29;20453;-72
2022/08/07 14:12:34;;;;;;;2.67;1.07;;;27.60;65.60;;;;;;4932196;29;20444;-72
2022/08/07 14:15:07;;;;;;;1.03;0.80;;;27.60;66.10;;;;;;4931219;29;20418;-73
2022/08/07 14:17:37;;;;;;;0.70;0.70;;;27.50;65.20;;;;;;4936434;29;20757;-73
2022/08/07 14:20:14;;;;;;;0.83;0.83;;;27.50;66.40;;;;;;4936413;29;20417;-73
2022/08/07 14:22:41;;;;;;;0.70;0.70;;;27.50;66.10;;;;;;4935822;29;20527;-73
2022/08/07 14:25:11;;;;;;;1.23;0.63;;;27.50;66.40;;;;;;4935731;29;20509;-73
2022/08/07 14:27:49;;;;;;;0.60;0.60;;;27.60;66.10;;;;;;4936401;29;20413;-73
2022/08/07 14:30:15;;;;;;;0.70;0.70;;;27.50;65.70;;;;;;4936149;29;20551;-72
2022/08/07 14:32:46;;;;;;;0.80;0.70;;;27.50;65.10;;;;;;4935537;29;20762;-73
2022/08/07 14:35:21;;;;;;;1.17;0.80;;;27.40;64.40;;;;;;4936300;29;20456;-73
2022/08/07 14:37:52;;;;;;;0.80;0.70;;;27.40;65.30;;;;;;4935725;29;20413;-73
2022/08/07 14:40:20;;;;;;;1.37;0.63;;;27.40;65.30;;;;;;4935970;29;20492;-73
2022/08/07 14:43:07;;;;;;;2.10;0.80;;;27.40;65.00;;;;;;4935261;29;20447;-71
2022/08/07 14:45:46;;;;;;;1.23;0.90;;;27.40;65.30;;;;;;4935640;29;20463;-73
2022/08/07 14:48:14;;;;;;;1.33;0.70;;;27.50;65.30;;;;;;4935970;28;20459;-72
2022/08/07 14:50:48;;;;;;;0.70;0.63;;;27.50;64.70;;;;;;4934018;29;20464;-72
2022/08/07 14:53:14;;;;;;;0.80;0.80;;;27.50;64.40;;;;;;4935268;29;20500;-72
2022/08/07 14:55:43;;;;;;;1.40;0.70;;;27.50;64.80;;;;;;4936009;29;20465;-73
2022/08/07 14:58:10;;;;;;;1.23;0.70;;;27.40;65.00;;;;;;4934564;29;20410;-73
2022/08/07 15:00:39;;;;;;;3.77;0.80;;;27.50;67.30;;;;;;4935255;29;20413;-72
2022/08/07 15:03:07;;;;;;;0.60;0.60;;;27.50;65.70;;;;;;4935173;29;20436;-71
2022/08/07 15:05:33;;;;;;;0.90;0.87;;;27.50;64.70;;;;;;4935785;29;20417;-73